createdAt,value
2022-10-01T00:00:18.081Z,93421.72
2022-10-01T00:01:49.909Z,93415.16
2022-10-01T00:03:22.245Z,93412.44
2022-10-01T00:04:53.803Z,93410.25
2022-10-01T00:06:25.937Z,93411.50
2022-10-01T00:07:57.878Z,93413.91
2022-10-01T00:09:29.500Z,93409.59
2022-10-01T00:11:01.836Z,93410.59
2022-10-01T00:12:33.851Z,93416.03
2022-10-01T00:14:05.656Z,93411.38
2022-10-01T00:18:11.138Z,93406.31
2022-10-01T00:19:42.782Z,93415.81
2022-10-01T00:21:16.204Z,93414.13
2022-10-01T00:22:47.764Z,93405.38
2022-10-01T00:24:19.913Z,93407.91
2022-10-01T00:25:53.541Z,93401.88
2022-10-01T00:27:25.962Z,93405.94
2022-10-01T00:29:00.919Z,93402.88
2022-10-01T00:30:34.469Z,93408.78
2022-10-01T00:32:07.777Z,93398.25
2022-10-01T00:33:39.378Z,93395.78
2022-10-01T00:35:10.992Z,93398.03
2022-10-01T00:36:42.882Z,93396.56
2022-10-01T00:38:15.429Z,93393.38
2022-10-01T00:39:47.150Z,93388.94
2022-10-01T00:41:18.701Z,93399.28
2022-10-01T00:42:50.459Z,93403.13
2022-10-01T00:44:32.370Z,93403.47
2022-10-01T00:46:06.619Z,93397.22
2022-10-01T00:47:41.152Z,93404.72
2022-10-01T00:49:15.443Z,93403.00
2022-10-01T00:50:49.203Z,93409.56
2022-10-01T00:52:22.739Z,93410.59
2022-10-01T00:53:54.929Z,93408.31
2022-10-01T00:55:27.160Z,93406.50
2022-10-01T00:56:59.556Z,93412.16
2022-10-01T00:58:31.326Z,93407.44
2022-10-01T01:00:04.200Z,93412.31
2022-10-01T01:01:36.739Z,93409.38
2022-10-01T01:03:08.713Z,93405.84
2022-10-01T01:04:41.075Z,93405.16
2022-10-01T01:06:12.677Z,93410.16
2022-10-01T01:07:46.113Z,93401.09
2022-10-01T01:09:18.151Z,93395.97
2022-10-01T01:10:50.527Z,93395.88
2022-10-01T01:12:37.176Z,93392.72
2022-10-01T01:14:26.801Z,93390.88
2022-10-01T01:16:07.207Z,93385.09
2022-10-01T01:17:43.784Z,93381.03
2022-10-01T01:19:33.784Z,93373.06
2022-10-01T01:21:08.309Z,93373.84
2022-10-01T01:22:42.033Z,93375.78
2022-10-01T01:24:25.647Z,93382.16
2022-10-01T01:25:57.209Z,93381.13
2022-10-01T01:27:38.614Z,93374.91
2022-10-01T01:29:18.636Z,93371.28
2022-10-01T01:30:50.773Z,93382.34
2022-10-01T01:32:31.003Z,93382.13
2022-10-01T01:34:02.780Z,93376.09
2022-10-01T01:35:35.137Z,93375.53
2022-10-01T01:37:12.609Z,93389.69
2022-10-01T01:38:46.680Z,93387.53
2022-10-01T01:40:18.339Z,93394.56
2022-10-01T01:41:50.368Z,93389.25
2022-10-01T01:43:26.611Z,93399.44
2022-10-01T01:44:59.052Z,93392.75
2022-10-01T01:46:33.329Z,93397.47
2022-10-01T01:48:05.099Z,93397.25
2022-10-01T01:49:38.958Z,93410.03
2022-10-01T01:51:37.089Z,93410.59
2022-10-01T01:53:09.161Z,93408.28
2022-10-01T01:54:40.898Z,93409.94
2022-10-01T01:56:12.464Z,93415.28
2022-10-01T01:57:44.081Z,93411.75
2022-10-01T01:59:16.559Z,93413.47
2022-10-01T02:00:48.190Z,93422.72
2022-10-01T02:02:20.913Z,93423.41
2022-10-01T02:03:52.500Z,93420.00
2022-10-01T02:05:26.112Z,93427.84
2022-10-01T02:06:57.753Z,93429.91
2022-10-01T02:08:37.589Z,93436.22
2022-10-01T02:10:27.687Z,93446.75
2022-10-01T02:12:22.599Z,93450.75
2022-10-01T02:14:09.517Z,93462.53
2022-10-01T02:15:44.317Z,93477.03
2022-10-01T02:17:16.717Z,93471.41
2022-10-01T02:19:05.807Z,93467.09
2022-10-01T02:20:42.675Z,93466.63
2022-10-01T02:22:30.022Z,93461.97
2022-10-01T02:24:03.411Z,93457.00
2022-10-01T02:25:36.875Z,93466.44
2022-10-01T02:27:11.247Z,93463.03
2022-10-01T02:28:42.924Z,93464.59
2022-10-01T02:30:15.454Z,93464.59
2022-10-01T02:31:47.402Z,93460.75
2022-10-01T02:33:20.421Z,93467.78
2022-10-01T02:34:52.307Z,93467.13
2022-10-01T02:36:24.094Z,93465.53
2022-10-01T02:37:56.549Z,93469.38
2022-10-01T02:39:28.365Z,93461.56
2022-10-01T02:41:01.132Z,93462.34
2022-10-01T02:42:32.666Z,93460.44
2022-10-01T02:44:14.786Z,93456.13
2022-10-01T02:45:47.039Z,93457.63
2022-10-01T02:47:20.494Z,93453.63
2022-10-01T02:48:52.073Z,93453.97
2022-10-01T02:50:24.502Z,93451.25
2022-10-01T02:52:02.276Z,93455.09
2022-10-01T02:53:44.509Z,93454.28
2022-10-01T02:55:23.011Z,93463.72
2022-10-01T02:57:13.226Z,93452.84
2022-10-01T02:58:44.950Z,93446.59
2022-10-01T03:00:17.315Z,93446.28
2022-10-01T03:01:48.914Z,93453.31
2022-10-01T03:03:20.792Z,93463.47
2022-10-01T03:04:52.503Z,93465.53
2022-10-01T03:06:24.120Z,93471.09
2022-10-01T03:07:55.708Z,93477.34
2022-10-01T03:09:27.575Z,93472.38
2022-10-01T03:10:59.171Z,93481.75
2022-10-01T03:12:30.715Z,93488.44
2022-10-01T03:14:03.232Z,93485.41
2022-10-01T03:15:34.976Z,93496.72
2022-10-01T03:17:07.463Z,93498.00
2022-10-01T03:18:39.017Z,93502.75
2022-10-01T03:20:10.653Z,93496.63
2022-10-01T03:21:42.310Z,93499.84
2022-10-01T03:23:13.919Z,93502.56
2022-10-01T03:24:45.585Z,93506.88
2022-10-01T03:26:17.344Z,93499.84
2022-10-01T03:27:49.784Z,93504.50
2022-10-01T03:29:21.447Z,93490.09
2022-10-01T03:30:53.056Z,93494.72
2022-10-01T03:32:24.702Z,93484.97
2022-10-01T03:34:00.561Z,93464.69
2022-10-01T03:35:32.462Z,93460.28
2022-10-01T03:37:04.205Z,93456.63
2022-10-01T03:38:35.782Z,93448.00
2022-10-01T03:40:08.010Z,93452.19
2022-10-01T03:41:40.286Z,93446.75
2022-10-01T03:43:12.390Z,93447.78
2022-10-01T03:44:44.190Z,93441.75
2022-10-01T03:46:15.870Z,93431.66
2022-10-01T03:47:53.669Z,93427.34
2022-10-01T03:49:25.344Z,93416.84
2022-10-01T03:50:58.160Z,93411.28
2022-10-01T03:52:30.514Z,93400.16
2022-10-01T03:54:02.068Z,93388.53
2022-10-01T03:55:33.612Z,93385.44
2022-10-01T03:57:06.227Z,93388.53
2022-10-01T03:58:37.807Z,93395.09
2022-10-01T04:00:09.802Z,93407.19
2022-10-01T04:01:41.461Z,93404.59
2022-10-01T04:03:13.786Z,93397.03
2022-10-01T04:04:45.403Z,93404.03
2022-10-01T04:06:16.976Z,93403.59
2022-10-01T04:07:50.287Z,93403.25
2022-10-01T04:09:21.933Z,93393.97
2022-10-01T04:10:53.441Z,93392.63
2022-10-01T04:12:25.122Z,93391.25
2022-10-01T04:13:58.098Z,93396.84
2022-10-01T04:15:29.750Z,93395.03
2022-10-01T04:17:01.455Z,93396.53
2022-10-01T04:18:33.390Z,93400.94
2022-10-01T04:20:05.327Z,93423.28
2022-10-01T04:21:37.513Z,93428.50
2022-10-01T04:23:09.559Z,93431.34
2022-10-01T04:24:41.238Z,93424.44
2022-10-01T04:26:12.924Z,93417.63
2022-10-01T04:27:55.495Z,93416.28
2022-10-01T04:29:27.108Z,93415.59
2022-10-01T04:31:37.674Z,93414.00
2022-10-01T04:33:12.713Z,93424.66
2022-10-01T04:34:53.722Z,93431.22
2022-10-01T04:36:25.729Z,93436.66
2022-10-01T04:38:03.729Z,93443.25
2022-10-01T04:39:35.291Z,93445.97
2022-10-01T04:41:06.926Z,93452.09
2022-10-01T04:42:40.584Z,93453.69
2022-10-01T04:44:12.822Z,93459.13
2022-10-01T04:45:44.392Z,93458.66
2022-10-01T04:47:15.993Z,93453.34
2022-10-01T04:48:48.423Z,93450.03
2022-10-01T04:50:20.351Z,93451.03
2022-10-01T04:51:52.257Z,93450.47
2022-10-01T04:53:23.854Z,93463.16
2022-10-01T04:54:55.715Z,93474.03
2022-10-01T04:56:27.395Z,93461.22
2022-10-01T04:57:59.026Z,93455.31
2022-10-01T04:59:32.016Z,93475.50
2022-10-01T05:01:03.762Z,93486.81
2022-10-01T05:02:35.850Z,93481.50
2022-10-01T05:04:07.806Z,93491.03
2022-10-01T05:05:39.929Z,93490.81
2022-10-01T05:07:11.479Z,93501.94
2022-10-01T05:08:43.270Z,93491.88
2022-10-01T05:10:18.826Z,93494.94
2022-10-01T05:11:52.268Z,93499.13
2022-10-01T05:13:24.154Z,93501.19
2022-10-01T05:14:56.025Z,93506.50
2022-10-01T05:16:27.688Z,93498.78
2022-10-01T05:17:59.412Z,93503.00
2022-10-01T05:19:32.342Z,93503.34
2022-10-01T05:21:07.283Z,93497.91
2022-10-01T05:22:39.313Z,93504.91
2022-10-01T05:24:11.021Z,93498.00
2022-10-01T05:25:43.234Z,93503.91
2022-10-01T05:27:14.829Z,93498.00
2022-10-01T05:28:46.639Z,93501.84
2022-10-01T05:30:22.437Z,93511.94
2022-10-01T05:31:54.227Z,93498.34
2022-10-01T05:33:26.088Z,93488.69
2022-10-01T05:34:57.673Z,93472.03
2022-10-01T05:36:29.784Z,93443.81
2022-10-01T05:38:02.106Z,93400.47
2022-10-01T05:39:33.976Z,93404.31
2022-10-01T05:41:05.772Z,93451.28
2022-10-01T05:42:37.454Z,93497.22
2022-10-01T05:44:08.988Z,93503.94
2022-10-01T05:45:40.776Z,93497.91
2022-10-01T05:47:13.569Z,93496.09
2022-10-01T05:48:45.443Z,93504.13
2022-10-01T05:50:17.778Z,93500.56
2022-10-01T05:51:49.859Z,93498.81
2022-10-01T05:53:22.533Z,93509.09
2022-10-01T05:54:54.161Z,93523.81
2022-10-01T05:56:26.035Z,93513.28
2022-10-01T05:57:58.337Z,93508.81
2022-10-01T05:59:31.966Z,93512.34
2022-10-01T06:01:05.079Z,93507.44
2022-10-01T06:02:36.878Z,93507.28
2022-10-01T06:04:09.888Z,93512.56
2022-10-01T06:05:43.876Z,93517.56
2022-10-01T06:07:15.708Z,93523.53
2022-10-01T06:08:47.393Z,93513.84
2022-10-01T06:10:19.663Z,93526.69
2022-10-01T06:11:51.217Z,93535.00
2022-10-01T06:13:23.060Z,93540.19
2022-10-01T06:14:55.086Z,93524.13
2022-10-01T06:16:26.899Z,93527.03
2022-10-01T06:18:02.236Z,93528.06
2022-10-01T06:19:33.911Z,93530.22
2022-10-01T06:21:05.592Z,93544.84
2022-10-01T06:22:37.387Z,93550.97
2022-10-01T06:24:09.419Z,93543.41
2022-10-01T06:25:41.933Z,93541.91
2022-10-01T06:27:13.495Z,93529.66
2022-10-01T06:28:45.331Z,93527.41
2022-10-01T06:30:17.185Z,93517.50
2022-10-01T06:31:48.882Z,93516.91
2022-10-01T06:33:20.950Z,93521.78
2022-10-01T06:34:52.792Z,93526.28
2022-10-01T06:36:24.881Z,93527.56
2022-10-01T06:37:57.011Z,93516.75
2022-10-01T06:39:29.136Z,93511.88
2022-10-01T06:41:01.251Z,93511.09
2022-10-01T06:42:33.245Z,93511.44
2022-10-01T06:44:05.042Z,93513.16
2022-10-01T06:45:40.893Z,93510.84
2022-10-01T06:47:13.075Z,93509.88
2022-10-01T06:48:46.898Z,93519.91
2022-10-01T06:50:19.055Z,93525.47
2022-10-01T06:52:09.517Z,93536.06
2022-10-01T06:53:41.309Z,93536.47
2022-10-01T06:55:16.523Z,93539.75
2022-10-01T06:56:48.681Z,93555.78
2022-10-01T06:58:21.157Z,93553.03
2022-10-01T06:59:52.678Z,93553.84
2022-10-01T07:01:24.328Z,93555.28
2022-10-01T07:02:56.170Z,93551.47
2022-10-01T07:04:27.943Z,93552.72
2022-10-01T07:06:05.343Z,93550.13
2022-10-01T07:07:37.409Z,93556.16
2022-10-01T07:09:08.914Z,93556.25
2022-10-01T07:10:41.147Z,93556.66
2022-10-01T07:12:13.357Z,93562.16
2022-10-01T07:13:45.180Z,93560.13
2022-10-01T07:15:17.426Z,93553.22
2022-10-01T07:16:49.532Z,93553.22
2022-10-01T07:18:21.336Z,93544.06
2022-10-01T07:19:53.012Z,93542.34
2022-10-01T07:21:24.760Z,93544.91
2022-10-01T07:22:56.879Z,93542.16
2022-10-01T07:24:28.740Z,93541.09
2022-10-01T07:26:00.251Z,93545.00
2022-10-01T07:27:31.789Z,93543.31
2022-10-01T07:29:03.833Z,93536.03
2022-10-01T07:30:35.502Z,93548.41
2022-10-01T07:32:09.037Z,93553.34
2022-10-01T07:33:41.097Z,93552.19
2022-10-01T07:35:12.741Z,93545.19
2022-10-01T07:36:45.607Z,93546.34
2022-10-01T07:38:17.450Z,93559.63
2022-10-01T07:39:49.065Z,93549.13
2022-10-01T07:41:20.815Z,93551.69
2022-10-01T07:42:54.729Z,93552.56
2022-10-01T07:44:28.091Z,93552.75
2022-10-01T07:46:00.395Z,93555.03
2022-10-01T07:47:32.331Z,93560.03
2022-10-01T07:49:04.247Z,93559.06
2022-10-01T07:50:36.169Z,93562.88
2022-10-01T07:52:12.405Z,93567.47
2022-10-01T07:53:44.796Z,93572.72
2022-10-01T07:55:16.408Z,93590.59
2022-10-01T07:56:49.342Z,93584.63
2022-10-01T07:58:24.355Z,93588.88
2022-10-01T07:59:56.294Z,93595.03
2022-10-01T08:01:28.955Z,93594.16
2022-10-01T08:03:00.748Z,93592.50
2022-10-01T08:04:50.961Z,93596.34
2022-10-01T08:06:25.589Z,93591.81
2022-10-01T08:08:01.133Z,93589.31
2022-10-01T08:09:32.768Z,93587.28
2022-10-01T08:11:04.357Z,93578.56
2022-10-01T08:12:36.312Z,93580.50
2022-10-01T08:14:07.928Z,93570.00
2022-10-01T08:15:39.752Z,93565.03
2022-10-01T08:17:11.350Z,93571.00
2022-10-01T08:18:43.293Z,93559.75
2022-10-01T08:20:16.818Z,93569.13
2022-10-01T08:21:49.605Z,93567.97
2022-10-01T08:23:21.753Z,93572.22
2022-10-01T08:24:53.743Z,93573.28
2022-10-01T08:26:25.590Z,93576.50
2022-10-01T08:27:57.875Z,93587.81
2022-10-01T08:29:29.890Z,93581.53
2022-10-01T08:31:07.337Z,93571.09
2022-10-01T08:32:39.345Z,93575.53
2022-10-01T08:34:10.970Z,93583.56
2022-10-01T08:35:43.933Z,93587.31
2022-10-01T08:37:16.122Z,93582.06
2022-10-01T08:38:48.025Z,93577.22
2022-10-01T08:40:19.896Z,93570.19
2022-10-01T08:41:54.630Z,93560.59
2022-10-01T08:43:29.640Z,93551.69
2022-10-01T08:45:04.196Z,93534.31
2022-10-01T08:46:36.401Z,93541.56
2022-10-01T08:48:17.040Z,93554.50
2022-10-01T08:49:49.443Z,93577.22
2022-10-01T08:51:30.307Z,93590.81
2022-10-01T08:53:02.838Z,93589.69
2022-10-01T08:54:34.458Z,93591.78
2022-10-01T08:56:06.110Z,93588.97
2022-10-01T08:57:39.655Z,93594.31
2022-10-01T08:59:32.235Z,93600.47
2022-10-01T09:01:04.143Z,93613.31
2022-10-01T09:02:36.287Z,93611.66
2022-10-01T09:27:52.332Z,93725.38
2022-10-01T09:29:26.293Z,93728.78
2022-10-01T09:31:06.773Z,93731.63
2022-10-01T09:33:05.469Z,93735.16
2022-10-01T09:35:44.163Z,93748.06
2022-10-01T09:42:33.643Z,93727.63
2022-10-01T09:44:06.337Z,93726.97
2022-10-01T09:45:38.462Z,93723.31
2022-10-01T09:47:18.493Z,93711.03
2022-10-01T09:48:53.166Z,93700.03
2022-10-01T09:50:28.448Z,93701.69
2022-10-01T09:52:06.737Z,93695.22
2022-10-01T09:53:59.167Z,93685.69
2022-10-01T09:55:34.888Z,93666.19
2022-10-01T09:57:08.425Z,93642.47
2022-10-01T09:58:40.366Z,93599.69
2022-10-01T10:00:15.311Z,93557.59
2022-10-01T10:01:48.483Z,93565.22
2022-10-01T10:03:38.517Z,93607.97
2022-10-01T10:05:17.367Z,93612.97
2022-10-01T10:06:49.517Z,93612.47
2022-10-01T10:08:26.235Z,93617.28
2022-10-01T10:09:57.981Z,93624.06
2022-10-01T10:11:30.216Z,93624.19
2022-10-01T10:13:02.956Z,93617.72
2022-10-01T10:14:35.318Z,93620.69
2022-10-01T10:16:11.127Z,93620.22
2022-10-01T10:17:44.121Z,93633.06
2022-10-01T10:19:16.864Z,93626.22
2022-10-01T10:20:51.810Z,93627.72
2022-10-01T10:22:26.432Z,93631.34
2022-10-01T10:24:01.674Z,93630.09
2022-10-01T10:25:33.400Z,93626.47
2022-10-01T10:27:05.887Z,93624.31
2022-10-01T10:28:44.021Z,93621.81
2022-10-01T10:30:16.798Z,93608.63
2022-10-01T10:31:51.267Z,93616.13
2022-10-01T10:33:23.253Z,93621.91
2022-10-01T10:35:00.851Z,93617.16
2022-10-01T10:36:35.481Z,93620.56
2022-10-01T14:19:31.440Z,93131.50
2022-10-01T14:21:28.964Z,93127.16
2022-10-01T14:23:07.023Z,93122.41
2022-10-01T14:25:05.135Z,93125.53
2022-10-01T14:26:42.860Z,93116.91
2022-10-01T14:28:20.191Z,93109.09
2022-10-01T14:30:22.034Z,93111.50
2022-10-01T14:32:13.995Z,93103.31
2022-10-01T14:33:52.801Z,93107.59
2022-10-01T14:35:41.258Z,93094.66
2022-10-01T14:37:16.974Z,93093.50
2022-10-01T14:38:50.356Z,93094.34
2022-10-01T14:40:25.013Z,93090.88
2022-10-01T14:41:57.644Z,93089.19
2022-10-01T14:43:30.575Z,93098.59
2022-10-01T14:45:17.609Z,93090.31
2022-10-01T14:46:50.362Z,93091.91
2022-10-01T14:48:41.097Z,93093.44
2022-10-01T14:50:17.855Z,93085.56
2022-10-01T14:51:57.517Z,93084.34
2022-10-01T14:53:30.766Z,93080.31
2022-10-01T14:55:13.201Z,93069.34
2022-10-01T14:56:45.210Z,93067.31
2022-10-01T14:58:19.314Z,93061.81
2022-10-01T14:59:54.638Z,93059.47
2022-10-01T15:01:29.513Z,93061.78
2022-10-01T15:03:15.836Z,93060.97
2022-10-01T15:04:52.214Z,93053.13
2022-10-01T15:06:24.888Z,93047.22
2022-10-01T15:07:56.980Z,93053.06
2022-10-01T15:09:33.564Z,93052.69
2022-10-01T15:11:08.621Z,93044.84
2022-10-01T15:12:41.493Z,93033.47
2022-10-01T15:14:15.680Z,93038.03
2022-10-01T15:15:47.408Z,93039.19
2022-10-01T15:17:28.255Z,93036.81
2022-10-01T15:19:00.590Z,93034.03
2022-10-01T15:20:32.613Z,93034.78
2022-10-01T15:22:04.893Z,93034.25
2022-10-01T15:23:37.093Z,93041.31
2022-10-01T15:25:17.559Z,93046.31
2022-10-01T15:26:49.711Z,93051.31
2022-10-01T15:28:34.224Z,93042.72
2022-10-01T15:30:06.522Z,93043.50
2022-10-01T15:31:38.992Z,93034.88
2022-10-01T15:33:18.656Z,93038.47
2022-10-01T15:34:52.195Z,93042.00
2022-10-01T15:36:23.902Z,93044.00
2022-10-01T15:38:00.779Z,93042.41
2022-10-01T15:39:33.748Z,93036.91
2022-10-01T15:41:29.988Z,93034.50
2022-10-01T15:43:12.084Z,93034.41
2022-10-01T15:44:47.142Z,93037.38
2022-10-01T15:46:19.196Z,93036.09
2022-10-01T15:47:51.963Z,93030.13
2022-10-01T15:49:27.627Z,93037.53
2022-10-01T15:51:00.320Z,93041.00
2022-10-01T15:52:50.870Z,93032.72
2022-10-01T15:54:22.855Z,93046.41
2022-10-01T15:55:58.123Z,93038.63
2022-10-01T15:57:34.072Z,93040.22
2022-10-01T15:59:13.370Z,93034.38
2022-10-01T16:00:48.960Z,93043.00
2022-10-01T16:02:23.673Z,93036.38
2022-10-01T16:03:56.349Z,93033.56
2022-10-01T16:05:29.358Z,93044.03
2022-10-01T16:07:01.175Z,93027.56
2022-10-01T16:08:37.266Z,93029.88
2022-10-01T16:10:16.119Z,93023.97
2022-10-01T16:11:50.904Z,93014.53
2022-10-01T16:13:32.064Z,93025.00
2022-10-01T16:15:04.160Z,93020.28
2022-10-01T16:16:36.125Z,93018.28
2022-10-01T16:18:19.763Z,93009.59
2022-10-01T16:19:52.348Z,93004.41
2022-10-01T16:21:24.036Z,92997.25
2022-10-01T16:23:07.181Z,92992.47
2022-10-01T16:24:44.639Z,92989.28
2022-10-01T16:26:28.746Z,92986.06
2022-10-01T16:28:05.660Z,92989.50
2022-10-01T16:29:37.311Z,92977.63
2022-10-01T16:31:08.958Z,92982.91
2022-10-01T16:32:41.003Z,92990.69
2022-10-01T16:34:13.173Z,92984.06
2022-10-01T16:35:46.113Z,92977.47
2022-10-01T16:37:20.021Z,92977.03
2022-10-01T16:38:51.601Z,92965.66
2022-10-01T16:40:24.256Z,92966.66
2022-10-01T16:42:18.994Z,92965.06
2022-10-01T16:43:47.885Z,92957.84
2022-10-01T16:45:24.734Z,92958.91
2022-10-01T16:46:56.844Z,92945.63
2022-10-01T16:48:29.305Z,92943.69
2022-10-01T16:50:01.272Z,92931.97
2022-10-01T16:51:33.111Z,92935.06
2022-10-01T16:53:05.150Z,92940.13
2022-10-01T16:54:37.061Z,92943.31
2022-10-01T16:56:11.998Z,92941.00
2022-10-01T16:57:43.697Z,92943.84
2022-10-01T16:59:15.838Z,92940.34
2022-10-01T17:00:48.029Z,92933.72
2022-10-01T17:02:19.763Z,92932.03
2022-10-01T17:03:51.485Z,92930.81
2022-10-01T17:05:30.314Z,92933.63
2022-10-01T17:07:02.299Z,92921.84
2022-10-01T17:08:33.846Z,92927.25
2022-10-01T17:10:06.610Z,92920.88
2022-10-01T17:11:39.556Z,92922.00
2022-10-01T17:13:14.013Z,92918.06
2022-10-01T17:14:45.736Z,92908.66
2022-10-01T17:16:19.470Z,92913.31
2022-10-01T17:17:54.841Z,92902.84
2022-10-01T17:19:27.136Z,92901.69
2022-10-01T17:21:00.128Z,92909.88
2022-10-01T17:22:32.217Z,92911.00
2022-10-01T17:24:03.929Z,92911.75
2022-10-01T17:25:36.242Z,92917.56
2022-10-01T17:27:08.083Z,92908.19
2022-10-01T17:28:39.987Z,92914.47
2022-10-01T17:30:12.278Z,92902.09
2022-10-01T17:31:46.655Z,92897.47
2022-10-01T17:33:22.655Z,92898.69
2022-10-01T17:34:54.685Z,92892.16
2022-10-01T17:36:27.108Z,92887.47
2022-10-01T17:37:59.207Z,92872.63
2022-10-01T17:39:31.353Z,92875.28
2022-10-01T17:41:03.236Z,92872.91
2022-10-01T17:42:35.770Z,92871.72
2022-10-01T17:44:07.838Z,92880.72
2022-10-01T17:45:39.918Z,92872.88
2022-10-01T17:47:12.201Z,92870.16
2022-10-01T17:48:44.339Z,92864.38
2022-10-01T17:50:16.346Z,92866.38
2022-10-01T17:51:49.483Z,92863.28
2022-10-01T17:53:21.368Z,92860.13
2022-10-01T17:54:53.316Z,92843.81
2022-10-01T17:56:25.861Z,92843.03
2022-10-01T17:57:58.278Z,92844.59
2022-10-01T17:59:33.276Z,92838.34
2022-10-01T18:01:08.049Z,92828.53
2022-10-01T18:02:42.832Z,92821.44
2022-10-01T18:04:16.008Z,92819.50
2022-10-01T18:05:47.770Z,92823.00
2022-10-01T18:07:20.538Z,92829.59
2022-10-01T18:08:56.678Z,92825.28
2022-10-01T18:10:29.411Z,92819.50
2022-10-01T18:12:01.529Z,92810.59
2022-10-01T18:13:33.923Z,92814.09
2022-10-01T18:15:05.848Z,92805.13
2022-10-01T18:16:37.801Z,92798.50
2022-10-01T18:20:01.462Z,92791.75
2022-10-01T18:21:33.168Z,92790.66
2022-10-01T18:23:05.016Z,92789.91
2022-10-01T18:24:36.680Z,92789.09
2022-10-01T18:26:09.116Z,92792.97
2022-10-01T18:27:41.089Z,92805.81
2022-10-01T18:29:16.909Z,92805.91
2022-10-01T18:30:48.956Z,92810.28
2022-10-01T18:32:24.484Z,92797.44
2022-10-01T18:33:56.852Z,92796.31
2022-10-01T18:35:32.239Z,92788.47
2022-10-01T18:37:30.198Z,92795.50
2022-10-01T18:39:11.909Z,92790.41
2022-10-01T18:40:43.624Z,92781.84
2022-10-01T18:42:17.444Z,92769.34
2022-10-01T18:43:49.042Z,92775.63
2022-10-01T18:45:35.761Z,92771.78
2022-10-01T18:47:07.634Z,92768.38
2022-10-01T18:48:57.830Z,92766.41
2022-10-01T18:50:48.199Z,92752.44
2022-10-01T18:52:26.853Z,92752.06
2022-10-01T18:54:10.910Z,92754.75
2022-10-01T18:55:48.510Z,92751.97
2022-10-01T18:57:35.149Z,92758.94
2022-10-01T18:59:13.933Z,92757.00
2022-10-01T19:00:48.563Z,92753.47
2022-10-01T19:02:22.932Z,92747.69
2022-10-01T19:04:07.130Z,92750.84
2022-10-01T19:05:48.316Z,92743.72
2022-10-01T19:07:38.565Z,92744.41
2022-10-01T19:09:16.402Z,92746.34
2022-10-01T19:10:54.854Z,92756.84
2022-10-01T19:12:27.235Z,92754.91
2022-10-01T19:14:20.220Z,92729.56
2022-10-01T19:15:53.062Z,92706.47
2022-10-01T19:17:43.172Z,92700.50
2022-10-01T19:19:24.822Z,92699.63
2022-10-01T19:21:14.069Z,92692.13
2022-10-01T19:22:48.919Z,92695.97
2022-10-01T19:24:29.789Z,92695.97
2022-10-01T19:26:20.293Z,92713.56
2022-10-01T19:28:07.950Z,92719.00
2022-10-01T19:29:58.899Z,92757.66
2022-10-01T19:31:40.489Z,92786.16
2022-10-01T19:33:12.364Z,92808.44
2022-10-01T19:34:49.933Z,92838.50
2022-10-01T19:36:25.902Z,92865.31
2022-10-01T19:38:04.482Z,92884.53
2022-10-01T19:39:36.904Z,92884.28
2022-10-01T19:41:25.295Z,92893.78
2022-10-01T19:43:15.181Z,92876.06
2022-10-01T19:44:54.680Z,92886.50
2022-10-01T19:46:27.484Z,92862.38
2022-10-01T19:48:11.174Z,92858.22
2022-10-01T19:49:42.964Z,92851.28
2022-10-01T19:51:15.808Z,92839.25
2022-10-01T19:52:51.775Z,92826.06
2022-10-01T19:54:25.438Z,92829.28
2022-10-01T19:55:58.657Z,92830.09
2022-10-01T19:57:30.822Z,92834.06
2022-10-01T19:59:07.369Z,92820.47
2022-10-01T20:00:39.706Z,92816.19
2022-10-01T20:02:15.636Z,92809.22
2022-10-01T20:04:03.397Z,92805.75
2022-10-01T20:05:38.232Z,92809.69
2022-10-01T20:07:14.302Z,92797.25
2022-10-01T20:08:53.225Z,92794.53
2022-10-01T20:10:41.949Z,92799.63
2022-10-01T20:12:16.568Z,92785.97
2022-10-01T20:13:51.369Z,92787.13
2022-10-01T20:15:52.855Z,92783.97
2022-10-01T20:17:26.328Z,92777.31
2022-10-01T20:19:05.025Z,92774.13
2022-10-01T20:20:45.782Z,92786.84
2022-10-01T20:22:23.966Z,92788.38
2022-10-01T20:24:04.811Z,92793.78
2022-10-01T20:25:42.031Z,92796.06
2022-10-01T20:27:20.158Z,92796.84
2022-10-01T20:29:03.950Z,92800.72
2022-10-01T20:30:40.258Z,92804.97
2022-10-01T20:32:13.981Z,92808.88
2022-10-01T20:33:57.943Z,92814.72
2022-10-01T20:35:40.927Z,92822.91
2022-10-01T20:37:25.350Z,92826.06
2022-10-01T20:39:15.453Z,92830.38
2022-10-01T20:40:49.979Z,92830.44
2022-10-01T20:42:24.795Z,92828.50
2022-10-01T20:43:56.996Z,92826.56
2022-10-01T20:45:29.483Z,92844.50
2022-10-01T20:47:02.542Z,92844.84
2022-10-01T20:48:35.732Z,92840.13
2022-10-01T20:50:12.555Z,92833.81
2022-10-01T20:51:46.308Z,92826.78
2022-10-01T20:53:30.598Z,92835.63
2022-10-01T20:55:18.820Z,92839.38
2022-10-01T20:57:00.917Z,92846.59
2022-10-01T20:58:36.267Z,92846.13
2022-10-01T21:00:08.739Z,92851.06
2022-10-01T21:01:41.759Z,92867.00
2022-10-01T21:03:26.691Z,92879.84
2022-10-01T21:05:02.859Z,92890.31
2022-10-01T21:06:39.352Z,92897.97
2022-10-01T21:08:16.030Z,92903.28
2022-10-01T21:09:47.988Z,92915.59
2022-10-01T21:11:32.460Z,92918.19
2022-10-01T21:13:07.857Z,92920.84
2022-10-01T21:14:45.681Z,92918.84
2022-10-01T21:16:20.536Z,92885.28
2022-10-01T21:17:58.640Z,92875.91
2022-10-01T21:19:38.567Z,92841.09
2022-10-01T21:21:24.007Z,92808.38
2022-10-01T21:23:05.892Z,92828.91
2022-10-01T21:24:56.821Z,92779.56
2022-10-01T21:26:35.951Z,92773.09
2022-10-01T21:28:26.377Z,92816.88
2022-10-01T21:30:03.134Z,92839.50
2022-10-01T21:31:54.157Z,92830.94
2022-10-01T21:33:27.413Z,92842.50
2022-10-01T21:35:02.412Z,92815.94
2022-10-01T21:36:51.062Z,92801.13
2022-10-01T21:38:31.664Z,92761.75
2022-10-01T21:40:12.257Z,92722.19
2022-10-01T21:41:59.716Z,92676.63
2022-10-01T21:43:31.403Z,92678.06
2022-10-01T21:45:07.563Z,92624.69
2022-10-01T21:46:40.367Z,92580.38
2022-10-01T21:48:16.253Z,92576.00
2022-10-01T21:49:53.071Z,92532.06
2022-10-01T21:51:46.602Z,92525.66
2022-10-01T21:53:33.370Z,92546.03
2022-10-01T21:55:14.675Z,92570.81
2022-10-01T21:57:04.745Z,92568.28
2022-10-01T21:58:52.163Z,92605.00
2022-10-01T22:00:26.460Z,92602.91
2022-10-01T22:02:03.958Z,92658.63
2022-10-01T22:03:37.512Z,92716.53
2022-10-01T22:05:12.026Z,92711.88
2022-10-01T22:06:46.189Z,92727.56
2022-10-01T22:08:18.591Z,92751.59
2022-10-01T22:19:57.142Z,92749.06
2022-10-01T22:21:35.641Z,92757.28
2022-10-01T22:23:08.683Z,92767.09
2022-10-01T22:24:44.613Z,92774.56
2022-10-01T22:26:17.732Z,92779.72
2022-10-01T22:27:49.665Z,92789.22
2022-10-01T22:29:22.600Z,92794.38
2022-10-01T22:30:54.200Z,92804.19
2022-10-01T22:32:27.074Z,92809.00
2022-10-01T22:34:00.581Z,92816.44
2022-10-01T22:35:45.617Z,92810.31
2022-10-01T22:37:19.756Z,92816.19
2022-10-01T22:38:56.177Z,92823.19
2022-10-01T22:40:29.505Z,92802.59
2022-10-01T22:42:06.618Z,92774.53
2022-10-01T22:43:40.936Z,92776.38
2022-10-01T22:45:14.080Z,92771.28
2022-10-01T22:47:04.459Z,92760.69
2022-10-01T22:48:39.143Z,92759.81
2022-10-01T22:50:14.364Z,92746.16
2022-10-01T22:52:02.743Z,92718.97
2022-10-01T22:53:44.356Z,92703.59
2022-10-01T22:55:20.801Z,92684.53
2022-10-01T22:57:00.125Z,92698.03
2022-10-01T22:58:45.954Z,92692.94
2022-10-01T23:00:18.902Z,92685.22
2022-10-01T23:02:05.105Z,92682.59
2022-10-01T23:03:49.435Z,92709.03
2022-10-01T23:05:40.247Z,92747.19